createdAt,value
2019-03-30T00:00:03.365Z,138.7
2019-03-30T00:00:29.371Z,138.7
2019-03-30T00:00:55.461Z,138.7
2019-03-30T00:01:21.383Z,138.7
2019-03-30T00:01:47.372Z,138.7
2019-03-30T00:02:13.452Z,138.7
2019-03-30T00:02:39.373Z,138.7
2019-03-30T00:03:05.452Z,138.7
2019-03-30T00:03:31.374Z,138.7
2019-03-30T00:03:57.374Z,138.7
2019-03-30T00:04:23.378Z,138.7
2019-03-30T00:04:49.377Z,138.7
2019-03-30T00:05:15.471Z,138.7
2019-03-30T00:05:41.390Z,138.7
2019-03-30T00:06:07.469Z,138.7
2019-03-30T00:06:33.380Z,138.7
2019-03-30T00:06:59.384Z,138.7
2019-03-30T00:07:25.464Z,138.7
2019-03-30T00:07:51.385Z,138.7
2019-03-30T00:08:17.379Z,138.7
2019-03-30T00:08:43.404Z,138.7
2019-03-30T00:09:09.420Z,138.7
2019-03-30T00:09:35.540Z,138.7
2019-03-30T00:10:01.491Z,138.7
2019-03-30T00:10:27.745Z,138.7
2019-03-30T00:10:53.378Z,138.7
2019-03-30T00:11:19.385Z,138.7
2019-03-30T00:11:45.478Z,138.7
2019-03-30T00:12:11.391Z,138.7
2019-03-30T00:12:37.388Z,138.7
2019-03-30T00:13:03.399Z,138.7
2019-03-30T00:13:29.468Z,138.7
2019-03-30T00:13:55.485Z,138.7
2019-03-30T00:14:21.387Z,138.7
2019-03-30T00:14:47.391Z,138.7
2019-03-30T00:15:13.394Z,138.7
2019-03-30T00:15:39.395Z,138.7
2019-03-30T00:16:05.498Z,138.7
2019-03-30T00:16:32.184Z,138.7
2019-03-30T00:16:57.408Z,138.7
2019-03-30T00:17:23.393Z,138.7
2019-03-30T00:17:49.392Z,138.7
2019-03-30T00:18:15.843Z,138.7
2019-03-30T00:18:41.391Z,138.7
2019-03-30T00:19:08.022Z,30.6
2019-03-30T00:19:33.467Z,30.6
2019-03-30T00:19:59.405Z,30.6
2019-03-30T00:20:26.858Z,30.6
2019-03-30T00:20:51.404Z,30.6
2019-03-30T00:21:17.410Z,30.6
2019-03-30T00:21:43.406Z,30.6
2019-03-30T00:22:09.404Z,30.6
2019-03-30T00:22:35.786Z,30.6
2019-03-30T00:23:02.219Z,30.6
2019-03-30T00:23:27.402Z,30.6
2019-03-30T00:23:53.472Z,30.6
2019-03-30T00:24:19.410Z,30.6
2019-03-30T00:24:45.511Z,30.6
2019-03-30T00:25:11.509Z,30.6
2019-03-30T00:25:37.411Z,30.6
2019-03-30T00:26:03.428Z,30.6
2019-03-30T00:26:29.487Z,30.6
2019-03-30T00:26:55.496Z,30.6
2019-03-30T00:27:21.509Z,30.6
2019-03-30T00:27:47.475Z,30.6
2019-03-30T00:28:13.419Z,30.6
2019-03-30T00:28:39.419Z,30.6
2019-03-30T00:29:05.999Z,30.6
2019-03-30T00:29:31.596Z,30.6
2019-03-30T00:29:57.417Z,30.6
2019-03-30T00:30:23.421Z,30.6
2019-03-30T00:30:49.423Z,30.6
2019-03-30T00:31:15.518Z,30.6
2019-03-30T00:31:41.520Z,30.6
2019-03-30T00:32:07.431Z,30.6
2019-03-30T00:32:33.511Z,30.6
2019-03-30T00:32:59.422Z,30.6
2019-03-30T00:33:25.515Z,30.6
2019-03-30T00:33:51.522Z,30.6
2019-03-30T00:34:17.424Z,30.6
2019-03-30T00:34:43.431Z,30.6
2019-03-30T00:35:09.423Z,30.6
2019-03-30T00:35:35.877Z,30.6
2019-03-30T00:36:01.543Z,30.6
2019-03-30T00:36:27.423Z,30.6
2019-03-30T00:36:53.436Z,30.6
2019-03-30T00:37:19.434Z,30.6
2019-03-30T00:37:45.518Z,30.6
2019-03-30T00:38:11.522Z,30.6
2019-03-30T00:38:37.428Z,30.6
2019-03-30T00:39:03.421Z,30.6
2019-03-30T00:39:29.434Z,30.6
2019-03-30T00:39:55.523Z,30.6
2019-03-30T00:40:21.533Z,30.6
2019-03-30T00:40:47.437Z,30.6
2019-03-30T00:41:13.441Z,30.6
2019-03-30T00:41:39.428Z,30.6
2019-03-30T00:42:05.540Z,30.6
2019-03-30T00:42:31.618Z,30.6
2019-03-30T00:42:57.435Z,30.6
2019-03-30T00:43:23.435Z,30.6
2019-03-30T00:43:49.437Z,30.6
2019-03-30T00:44:15.560Z,30.6
2019-03-30T00:44:41.532Z,30.6
2019-03-30T00:45:07.446Z,30.6
2019-03-30T00:45:33.564Z,30.6
2019-03-30T00:45:59.428Z,30.6
2019-03-30T00:46:25.521Z,30.6
2019-03-30T00:46:51.538Z,30.6
2019-03-30T00:47:17.436Z,30.6
2019-03-30T00:47:43.444Z,30.6
2019-03-30T00:48:09.449Z,30.6
2019-03-30T00:48:35.595Z,30.6
2019-03-30T00:49:01.645Z,13.3
2019-03-30T00:49:27.437Z,13.3
2019-03-30T00:49:53.448Z,13.3
2019-03-30T00:50:19.438Z,13.3
2019-03-30T00:50:45.539Z,13.3
2019-03-30T00:51:11.555Z,13.3
2019-03-30T00:51:37.444Z,13.3
2019-03-30T00:52:03.993Z,13.3
2019-03-30T00:52:29.450Z,13.3
2019-03-30T00:52:55.610Z,13.3
2019-03-30T00:53:21.544Z,13.3
2019-03-30T00:53:47.449Z,13.3
2019-03-30T00:54:13.465Z,13.3
2019-03-30T00:54:39.453Z,13.3
2019-03-30T00:55:05.552Z,13.3
2019-03-30T00:55:31.559Z,13.3
2019-03-30T00:55:57.528Z,13.3
2019-03-30T00:56:23.452Z,13.3
2019-03-30T00:56:49.448Z,13.3
2019-03-30T00:57:15.547Z,13.3
2019-03-30T00:57:41.552Z,13.3
2019-03-30T00:58:07.463Z,13.3
2019-03-30T00:58:33.466Z,13.3
2019-03-30T00:58:59.890Z,13.3
2019-03-30T00:59:25.609Z,13.3
2019-03-30T00:59:51.556Z,13.3
2019-03-30T01:00:17.450Z,13.3
2019-03-30T01:00:43.461Z,13.3
2019-03-30T01:01:09.460Z,13.3
2019-03-30T01:01:35.550Z,13.3
2019-03-30T01:02:01.926Z,13.3
2019-03-30T01:02:27.546Z,13.3
2019-03-30T01:02:53.465Z,13.3
2019-03-30T01:03:19.533Z,13.3
2019-03-30T01:03:45.548Z,13.3
2019-03-30T01:04:11.567Z,13.3
2019-03-30T01:04:37.464Z,13.3
2019-03-30T01:05:03.467Z,13.3
2019-03-30T01:05:29.468Z,13.3
2019-03-30T01:05:55.630Z,13.3
2019-03-30T01:06:21.560Z,13.3
2019-03-30T01:06:47.461Z,13.3
2019-03-30T01:07:13.478Z,13.3
2019-03-30T01:07:39.472Z,13.3
2019-03-30T01:08:05.568Z,13.3
2019-03-30T01:08:31.582Z,13.3
2019-03-30T01:08:57.467Z,13.3
2019-03-30T01:09:23.484Z,13.3
2019-03-30T01:09:49.467Z,13.3
2019-03-30T01:10:15.576Z,13.3
2019-03-30T01:10:41.584Z,13.3
2019-03-30T01:11:07.476Z,13.3
2019-03-30T01:11:33.492Z,13.3
2019-03-30T01:11:59.553Z,13.3
2019-03-30T01:12:25.648Z,13.3
2019-03-30T01:12:51.579Z,13.3
2019-03-30T01:13:17.482Z,13.3
2019-03-30T01:13:43.492Z,13.3
2019-03-30T01:14:09.486Z,13.3
2019-03-30T01:14:35.575Z,13.3
2019-03-30T01:15:01.607Z,13.3
2019-03-30T01:15:27.495Z,13.3
2019-03-30T01:15:53.572Z,13.3
2019-03-30T01:16:19.475Z,13.3
2019-03-30T01:16:45.566Z,13.3
2019-03-30T01:17:11.593Z,13.3
2019-03-30T01:17:37.486Z,13.3
2019-03-30T01:18:03.791Z,13.3
2019-03-30T01:18:29.809Z,13.3
2019-03-30T01:18:55.639Z,13.3
2019-03-30T01:19:21.473Z,21.9
2019-03-30T01:19:47.472Z,21.9
2019-03-30T01:20:13.475Z,21.9
2019-03-30T01:20:39.479Z,21.9
2019-03-30T01:21:05.561Z,21.9
2019-03-30T01:21:31.477Z,21.9
2019-03-30T01:21:57.482Z,21.9
2019-03-30T01:22:23.477Z,21.9
2019-03-30T01:22:49.488Z,21.9
2019-03-30T01:23:15.565Z,21.9
2019-03-30T01:23:41.478Z,21.9
2019-03-30T01:24:07.482Z,21.9
2019-03-30T01:24:33.567Z,21.9
2019-03-30T01:24:59.483Z,21.9
2019-03-30T01:25:25.568Z,21.9
2019-03-30T01:25:51.483Z,21.9
2019-03-30T01:26:17.487Z,21.9
2019-03-30T01:26:43.487Z,21.9
2019-03-30T01:27:09.482Z,21.9
2019-03-30T01:27:35.673Z,21.9
2019-03-30T01:28:01.506Z,21.9
2019-03-30T01:28:27.485Z,21.9
2019-03-30T01:28:53.485Z,21.9
2019-03-30T01:29:19.488Z,21.9
2019-03-30T01:29:45.576Z,21.9
2019-03-30T01:30:11.490Z,21.9
2019-03-30T01:30:37.488Z,21.9
2019-03-30T01:31:03.499Z,21.9
2019-03-30T01:31:29.568Z,21.9
2019-03-30T01:31:55.580Z,21.9
2019-03-30T01:32:21.493Z,21.9
2019-03-30T01:32:47.504Z,21.9
2019-03-30T01:33:13.494Z,21.9
2019-03-30T01:33:39.493Z,21.9
2019-03-30T01:34:05.579Z,21.9
2019-03-30T01:34:31.500Z,21.9
2019-03-30T01:34:57.493Z,21.9
2019-03-30T01:35:23.494Z,21.9
2019-03-30T01:35:49.496Z,21.9
2019-03-30T01:36:15.584Z,21.9
2019-03-30T01:36:41.501Z,21.9
2019-03-30T01:37:07.499Z,21.9
2019-03-30T01:37:33.514Z,21.9
2019-03-30T01:37:59.494Z,21.9
2019-03-30T01:38:25.598Z,21.9
2019-03-30T01:38:51.500Z,21.9
2019-03-30T01:39:17.504Z,21.9
2019-03-30T01:39:43.514Z,21.9
2019-03-30T01:40:09.505Z,21.9
2019-03-30T01:40:35.592Z,21.9
2019-03-30T01:41:01.527Z,21.9
2019-03-30T01:41:27.506Z,21.9
2019-03-30T01:41:53.816Z,21.9
2019-03-30T01:42:19.516Z,21.9
2019-03-30T01:42:45.671Z,21.9
2019-03-30T01:43:11.518Z,21.9
2019-03-30T01:43:37.513Z,21.9
2019-03-30T01:44:03.514Z,21.9
2019-03-30T01:44:29.520Z,21.9
2019-03-30T01:44:55.604Z,21.9
2019-03-30T01:45:21.519Z,21.9
2019-03-30T01:45:47.514Z,21.9
2019-03-30T01:46:13.610Z,21.9
2019-03-30T01:46:39.518Z,21.9
2019-03-30T01:47:05.601Z,21.9
2019-03-30T01:47:31.521Z,21.9
2019-03-30T01:47:57.520Z,21.9
2019-03-30T01:48:23.518Z,21.9
2019-03-30T01:48:49.524Z,21.9
2019-03-30T01:49:15.618Z,21.9
2019-03-30T01:49:41.520Z,21.9
2019-03-30T01:50:07.526Z,21.9
2019-03-30T01:50:33.519Z,21.9
2019-03-30T01:50:59.525Z,21.9
2019-03-30T01:51:25.615Z,21.9
2019-03-30T01:51:51.530Z,21.9
2019-03-30T01:52:17.532Z,21.9
2019-03-30T01:52:43.522Z,21.9
2019-03-30T01:53:09.537Z,21.9
2019-03-30T01:53:35.683Z,21.9
2019-03-30T01:54:01.900Z,21.9
2019-03-30T01:54:27.526Z,21.9
2019-03-30T01:54:53.530Z,21.9
2019-03-30T01:55:19.526Z,21.9
2019-03-30T01:55:45.624Z,21.9
2019-03-30T01:56:11.534Z,21.9
2019-03-30T01:56:37.538Z,21.9
2019-03-30T01:57:03.534Z,21.9
2019-03-30T01:57:29.544Z,21.9
2019-03-30T01:57:55.692Z,21.9
2019-03-30T01:58:21.619Z,21.9
2019-03-30T01:58:47.530Z,21.9
2019-03-30T01:59:13.534Z,21.9
2019-03-30T01:59:39.535Z,21.9
2019-03-30T02:00:05.635Z,21.9
2019-03-30T02:00:31.536Z,21.9
2019-03-30T02:00:57.550Z,21.9
2019-03-30T02:01:23.661Z,21.9
2019-03-30T02:01:49.531Z,21.9
2019-03-30T02:02:15.616Z,21.9
2019-03-30T02:02:41.541Z,21.9
2019-03-30T02:03:07.543Z,21.9
2019-03-30T02:03:33.729Z,21.9
2019-03-30T02:03:59.551Z,21.9
2019-03-30T02:04:25.702Z,21.9
2019-03-30T02:04:51.554Z,21.9
2019-03-30T02:05:17.544Z,21.9
2019-03-30T02:05:43.548Z,21.9
2019-03-30T02:06:09.549Z,21.9
2019-03-30T02:06:35.631Z,21.9
2019-03-30T02:07:01.568Z,21.9
2019-03-30T02:07:27.550Z,21.9
2019-03-30T02:07:53.636Z,21.9
2019-03-30T02:08:19.548Z,21.9
2019-03-30T02:08:45.636Z,21.9
2019-03-30T02:09:11.554Z,21.9
2019-03-30T02:09:37.558Z,21.9
2019-03-30T02:10:03.601Z,21.9
2019-03-30T02:10:29.561Z,21.9
2019-03-30T02:10:55.710Z,21.9
2019-03-30T02:11:21.552Z,21.9
2019-03-30T02:11:47.550Z,21.9
2019-03-30T02:12:13.551Z,21.9
2019-03-30T02:12:39.560Z,21.9
2019-03-30T02:13:05.640Z,21.9
2019-03-30T02:13:31.565Z,21.9
2019-03-30T02:13:57.558Z,21.9
2019-03-30T02:14:23.728Z,21.9
2019-03-30T02:14:49.554Z,21.9
2019-03-30T02:15:15.633Z,21.9
2019-03-30T02:15:41.573Z,21.9
2019-03-30T02:16:07.107Z,21.9
2019-03-30T02:16:32.565Z,21.9
2019-03-30T02:16:58.570Z,21.9
2019-03-30T02:17:24.585Z,21.9
2019-03-30T02:17:50.569Z,21.9
2019-03-30T02:18:16.649Z,21.9
2019-03-30T02:18:42.564Z,21.9
2019-03-30T02:19:08.562Z,175.3
2019-03-30T02:19:34.567Z,175.3
2019-03-30T02:20:00.574Z,175.3
2019-03-30T02:20:26.568Z,175.3
2019-03-30T02:20:52.574Z,175.3
2019-03-30T02:21:18.655Z,175.3
2019-03-30T02:21:44.567Z,175.3
2019-03-30T02:22:10.570Z,175.3
2019-03-30T02:22:36.568Z,175.3
2019-03-30T02:23:02.570Z,175.3
2019-03-30T02:23:28.573Z,175.3
2019-03-30T02:23:54.571Z,175.3
2019-03-30T02:24:20.578Z,175.3
2019-03-30T02:24:46.588Z,175.3
2019-03-30T02:25:12.575Z,175.3
2019-03-30T02:25:38.660Z,175.3
2019-03-30T02:26:04.573Z,175.3
2019-03-30T02:26:30.695Z,175.3
2019-03-30T02:26:56.576Z,175.3
2019-03-30T02:27:22.573Z,175.3
2019-03-30T02:27:48.579Z,175.3
2019-03-30T02:28:14.587Z,175.3
2019-03-30T02:28:40.585Z,175.3
2019-03-30T02:29:06.663Z,175.3
2019-03-30T02:29:32.576Z,175.3
2019-03-30T02:29:58.578Z,175.3
2019-03-30T02:30:30.624Z,0
2019-03-30T02:30:56.551Z,0
2019-03-30T02:31:22.629Z,0
2019-03-30T02:31:48.551Z,0
2019-03-30T02:32:25.349Z,0
2019-03-30T02:33:18.373Z,0
2019-03-30T02:33:43.944Z,0
2019-03-30T02:34:25.577Z,0
2019-03-30T02:34:51.498Z,0
2019-03-30T02:35:17.589Z,0
2019-03-30T02:37:22.585Z,0
2019-03-30T02:37:48.512Z,0
2019-03-30T02:38:14.599Z,0
2019-03-30T02:38:40.508Z,0
2019-03-30T02:39:06.512Z,0
2019-03-30T02:39:32.522Z,0
2019-03-30T02:39:58.590Z,0
2019-03-30T02:40:24.589Z,0
2019-03-30T02:40:50.513Z,0
2019-03-30T02:41:16.514Z,0
2019-03-30T02:41:42.520Z,0
2019-03-30T02:42:37.554Z,0
2019-03-30T02:43:03.508Z,0
2019-03-30T02:43:29.564Z,0
2019-03-30T02:43:55.482Z,0
2019-03-30T02:44:21.482Z,0
2019-03-30T02:44:47.484Z,0
2019-03-30T02:45:56.453Z,0
2019-03-30T02:46:48.313Z,0
2019-03-30T02:47:40.841Z,0
2019-03-30T02:48:44.756Z,0
2019-03-30T02:49:10.686Z,27.2
2019-03-30T02:49:36.760Z,27.2
2019-03-30T02:50:26.803Z,0
2019-03-30T02:51:23.310Z,0
2019-03-30T02:51:58.453Z,0
2019-03-30T02:53:53.934Z,0
2019-03-30T02:54:20.023Z,0
2019-03-30T02:56:48.755Z,0
2019-03-30T02:57:14.567Z,23.8
2019-03-30T02:57:40.662Z,23.8
2019-03-30T02:58:06.574Z,23.8
2019-03-30T02:58:32.570Z,23.8
2019-03-30T02:58:58.587Z,23.8
2019-03-30T02:59:24.639Z,23.8
2019-03-30T02:59:50.657Z,23.8
2019-03-30T03:00:16.575Z,23.8
2019-03-30T03:00:42.573Z,23.8
2019-03-30T03:01:08.574Z,23.8
2019-03-30T03:01:34.580Z,23.8
2019-03-30T03:02:00.731Z,23.8
2019-03-30T03:02:26.579Z,23.8
2019-03-30T03:02:52.582Z,23.8
2019-03-30T03:03:18.578Z,23.8
2019-03-30T03:03:44.582Z,23.8
2019-03-30T03:04:10.672Z,23.8
2019-03-30T03:04:36.657Z,23.8
2019-03-30T03:05:02.577Z,23.8
2019-03-30T03:05:28.579Z,23.8
2019-03-30T03:05:54.591Z,23.8
2019-03-30T03:06:20.671Z,23.8
2019-03-30T03:06:46.589Z,23.8
2019-03-30T03:07:12.664Z,23.8
2019-03-30T03:07:38.581Z,23.8
2019-03-30T03:08:04.586Z,23.8
2019-03-30T03:08:30.678Z,23.8
2019-03-30T03:08:56.591Z,23.8
2019-03-30T03:09:22.600Z,23.8
2019-03-30T03:09:48.655Z,23.8
2019-03-30T03:10:14.588Z,23.8
2019-03-30T03:10:40.674Z,23.8
2019-03-30T03:11:06.590Z,23.8
2019-03-30T03:11:32.587Z,23.8
2019-03-30T03:11:58.601Z,23.8
2019-03-30T03:12:24.656Z,23.8
2019-03-30T03:12:50.681Z,23.8
2019-03-30T03:13:16.593Z,23.8
2019-03-30T03:13:42.598Z,23.8
2019-03-30T03:14:08.600Z,23.8
2019-03-30T03:14:34.597Z,23.8
2019-03-30T03:15:00.751Z,23.8
2019-03-30T03:15:26.597Z,23.8
2019-03-30T03:15:52.599Z,23.8
2019-03-30T03:16:18.597Z,23.8
2019-03-30T03:16:44.596Z,23.8
2019-03-30T03:17:10.698Z,23.8
2019-03-30T03:17:36.597Z,23.8
2019-03-30T03:18:02.599Z,23.8
2019-03-30T03:18:28.597Z,23.8
2019-03-30T03:18:54.606Z,23.8
2019-03-30T03:19:20.679Z,23.8
2019-03-30T03:19:46.602Z,23.8
2019-03-30T03:20:12.611Z,23.8
2019-03-30T03:20:38.674Z,23.8
2019-03-30T03:21:04.598Z,23.8
2019-03-30T03:21:30.693Z,23.8
2019-03-30T03:21:56.605Z,23.8
2019-03-30T03:22:22.604Z,23.8
2019-03-30T03:22:48.608Z,23.8
2019-03-30T03:23:14.619Z,23.8
2019-03-30T03:23:40.771Z,23.8
2019-03-30T03:24:06.606Z,23.8
2019-03-30T03:24:32.608Z,23.8
2019-03-30T03:24:58.611Z,23.8
2019-03-30T03:25:24.609Z,23.8
2019-03-30T03:25:50.701Z,23.8
2019-03-30T03:26:16.686Z,23.8
2019-03-30T03:26:42.611Z,23.8
2019-03-30T03:27:08.613Z,49.4
2019-03-30T03:27:34.615Z,49.4
2019-03-30T03:28:00.723Z,49.4
2019-03-30T03:28:26.627Z,49.4
2019-03-30T03:28:52.689Z,49.4
2019-03-30T03:29:18.615Z,49.4
2019-03-30T03:29:44.619Z,49.4
2019-03-30T03:30:10.707Z,49.4
2019-03-30T03:30:36.617Z,49.4
2019-03-30T03:31:02.629Z,49.4
2019-03-30T03:31:28.687Z,49.4
2019-03-30T03:31:54.615Z,49.4
2019-03-30T03:32:20.933Z,49.4
2019-03-30T03:32:46.626Z,49.4
2019-03-30T03:33:12.620Z,49.4
2019-03-30T03:33:38.627Z,49.4
2019-03-30T03:34:04.698Z,49.4
2019-03-30T03:34:31.280Z,49.4
2019-03-30T03:34:56.623Z,49.4
2019-03-30T03:35:22.620Z,49.4
2019-03-30T03:35:48.633Z,49.4
2019-03-30T03:36:14.641Z,49.4
2019-03-30T03:36:40.773Z,49.4
2019-03-30T03:37:06.634Z,49.4
2019-03-30T03:37:32.631Z,49.4
2019-03-30T03:37:58.639Z,49.4
2019-03-30T03:38:24.627Z,49.4
2019-03-30T03:38:50.717Z,49.4
2019-03-30T03:39:16.712Z,49.4
2019-03-30T03:39:42.629Z,49.4
2019-03-30T03:40:08.630Z,49.4
2019-03-30T03:40:34.631Z,49.4
2019-03-30T03:41:00.739Z,49.4
2019-03-30T03:41:26.731Z,49.4
2019-03-30T03:41:52.714Z,49.4
2019-03-30T03:42:18.632Z,49.4
2019-03-30T03:42:44.648Z,49.4
2019-03-30T03:43:10.723Z,49.4
2019-03-30T03:43:36.636Z,49.4
2019-03-30T03:44:02.645Z,49.4
2019-03-30T03:44:28.707Z,49.4
2019-03-30T03:44:54.636Z,49.4
2019-03-30T03:45:20.725Z,49.4
2019-03-30T03:45:46.638Z,49.4
2019-03-30T03:46:12.647Z,49.4
2019-03-30T03:46:38.663Z,49.4
2019-03-30T03:47:04.710Z,49.4
2019-03-30T03:47:30.725Z,49.4
2019-03-30T03:47:56.638Z,49.4
2019-03-30T03:48:22.644Z,49.4
2019-03-30T03:48:48.654Z,49.4
2019-03-30T03:49:14.652Z,49.4
2019-03-30T03:49:40.790Z,49.4
2019-03-30T03:50:06.655Z,49.4
2019-03-30T03:50:32.645Z,49.4
2019-03-30T03:50:58.645Z,49.4
2019-03-30T03:51:24.644Z,49.4
2019-03-30T03:51:50.749Z,49.4
2019-03-30T03:52:16.737Z,49.4
2019-03-30T03:52:42.642Z,49.4
2019-03-30T03:53:08.650Z,49.4
2019-03-30T03:53:34.651Z,49.4
2019-03-30T03:54:01.021Z,49.4
2019-03-30T03:54:26.657Z,49.4
2019-03-30T03:54:52.735Z,49.4
2019-03-30T03:55:18.682Z,49.4
2019-03-30T03:55:44.654Z,49.4
2019-03-30T03:56:10.745Z,49.4
2019-03-30T03:56:36.654Z,49.4
2019-03-30T03:57:02.674Z,49.4
2019-03-30T03:57:28.750Z,49.4
2019-03-30T03:57:54.656Z,49.4
2019-03-30T03:58:20.741Z,49.4
2019-03-30T03:58:46.655Z,49.4
2019-03-30T03:59:12.666Z,49.4
2019-03-30T03:59:38.673Z,49.4
2019-03-30T04:00:04.726Z,49.4
2019-03-30T04:00:30.751Z,49.4
2019-03-30T04:00:56.658Z,49.4
2019-03-30T04:01:22.656Z,49.4
2019-03-30T04:01:48.665Z,49.4
2019-03-30T04:02:14.670Z,49.4
2019-03-30T04:02:40.827Z,49.4
2019-03-30T04:03:06.670Z,49.4
2019-03-30T04:03:32.663Z,49.4
2019-03-30T04:03:58.661Z,49.4
2019-03-30T04:04:24.665Z,49.4
2019-03-30T04:04:50.763Z,49.4
2019-03-30T04:05:16.743Z,49.4
2019-03-30T04:05:42.667Z,49.4
2019-03-30T04:06:08.673Z,49.4
2019-03-30T04:06:34.905Z,49.4
2019-03-30T04:07:00.748Z,49.4
2019-03-30T04:07:26.677Z,49.4
2019-03-30T04:07:52.753Z,49.4
2019-03-30T04:08:18.668Z,49.4
2019-03-30T04:08:44.673Z,49.4
2019-03-30T04:09:10.758Z,49.4
2019-03-30T04:09:37.170Z,49.4
2019-03-30T04:10:02.681Z,49.4
2019-03-30T04:10:28.747Z,49.4
2019-03-30T04:10:54.668Z,49.4
2019-03-30T04:11:20.752Z,49.4
2019-03-30T04:11:46.672Z,49.4
2019-03-30T04:12:12.678Z,49.4
2019-03-30T04:12:38.687Z,49.4
2019-03-30T04:13:04.759Z,49.4
2019-03-30T04:13:30.762Z,49.4
2019-03-30T04:13:56.679Z,49.4
2019-03-30T04:14:22.685Z,49.4
2019-03-30T04:14:48.678Z,49.4
2019-03-30T04:15:14.697Z,49.4
2019-03-30T04:15:40.836Z,49.4
2019-03-30T04:16:06.677Z,49.4
2019-03-30T04:16:32.677Z,49.4
2019-03-30T04:16:58.682Z,49.4
2019-03-30T04:17:24.683Z,49.4
2019-03-30T04:17:50.778Z,49.4
2019-03-30T04:18:16.762Z,49.4
2019-03-30T04:18:42.687Z,49.4
2019-03-30T04:19:08.691Z,49.4
2019-03-30T04:19:34.687Z,49.4
2019-03-30T04:20:00.798Z,49.4
2019-03-30T04:20:26.696Z,49.4
2019-03-30T04:20:52.767Z,49.4
2019-03-30T04:21:18.681Z,49.4
2019-03-30T04:21:44.694Z,49.4
2019-03-30T04:22:10.783Z,49.4
2019-03-30T04:22:36.695Z,49.4
2019-03-30T04:23:02.699Z,49.4
2019-03-30T04:23:28.766Z,49.4
2019-03-30T04:23:54.693Z,49.4
2019-03-30T04:24:20.775Z,49.4
2019-03-30T04:24:46.692Z,49.4
2019-03-30T04:25:12.735Z,49.4
2019-03-30T04:25:38.713Z,49.4
2019-03-30T04:26:05.155Z,49.4
2019-03-30T04:26:30.780Z,49.4
2019-03-30T04:26:56.699Z,49.4
2019-03-30T04:27:22.697Z,49.4
2019-03-30T04:27:48.698Z,49.4
2019-03-30T04:28:14.708Z,49.4
2019-03-30T04:28:40.848Z,49.4
2019-03-30T04:29:06.703Z,49.4
2019-03-30T04:29:32.702Z,49.4
2019-03-30T04:29:58.706Z,49.4
2019-03-30T04:30:24.697Z,49.4
2019-03-30T04:30:50.790Z,49.4
2019-03-30T04:31:16.786Z,49.4
2019-03-30T04:31:42.704Z,49.4
2019-03-30T04:32:08.707Z,49.4
2019-03-30T04:32:34.706Z,49.4
2019-03-30T04:33:00.816Z,49.4
2019-03-30T04:33:26.723Z,49.4
2019-03-30T04:33:52.781Z,49.4
2019-03-30T04:34:18.706Z,49.4
2019-03-30T04:34:44.710Z,49.4
2019-03-30T04:35:10.794Z,49.4
2019-03-30T04:35:36.706Z,49.4
2019-03-30T04:36:02.720Z,49.4
2019-03-30T04:36:28.783Z,49.4
2019-03-30T04:36:54.706Z,49.4
2019-03-30T04:37:20.798Z,49.4
2019-03-30T04:37:46.709Z,49.4
2019-03-30T04:38:12.719Z,49.4
2019-03-30T04:38:38.726Z,49.4
2019-03-30T04:39:04.788Z,49.4
2019-03-30T04:39:30.789Z,49.4
2019-03-30T04:39:56.715Z,49.4
2019-03-30T04:40:22.713Z,49.4
2019-03-30T04:40:48.718Z,49.4
2019-03-30T04:41:14.730Z,49.4
2019-03-30T04:41:40.871Z,49.4
2019-03-30T04:42:06.721Z,49.4
2019-03-30T04:42:32.720Z,49.4
2019-03-30T04:42:58.720Z,49.4
2019-03-30T04:43:24.722Z,49.4
2019-03-30T04:43:50.810Z,49.4
2019-03-30T04:44:16.798Z,49.4
2019-03-30T04:44:42.718Z,49.4
2019-03-30T04:45:08.720Z,49.4
2019-03-30T04:45:34.806Z,49.4
2019-03-30T04:46:00.858Z,49.4
2019-03-30T04:46:26.732Z,49.4
2019-03-30T04:46:52.800Z,49.4
2019-03-30T04:47:18.727Z,49.4
2019-03-30T04:47:44.728Z,49.4
2019-03-30T04:48:10.810Z,49.4
2019-03-30T04:48:36.762Z,49.4
2019-03-30T04:49:02.742Z,49.4
2019-03-30T04:49:28.798Z,49.4
2019-03-30T04:49:54.723Z,49.4
2019-03-30T04:50:20.813Z,49.4
2019-03-30T04:50:46.735Z,49.4
2019-03-30T04:51:12.728Z,49.4
2019-03-30T04:51:38.739Z,49.4
2019-03-30T04:52:04.801Z,49.4
2019-03-30T04:52:30.820Z,49.4
2019-03-30T04:52:56.734Z,49.4
2019-03-30T04:53:22.738Z,49.4
2019-03-30T04:53:48.737Z,49.4
2019-03-30T04:54:14.742Z,49.4
2019-03-30T04:54:40.897Z,49.4
2019-03-30T04:55:06.742Z,49.4
2019-03-30T04:55:32.744Z,49.4
2019-03-30T04:55:58.743Z,49.4
2019-03-30T04:56:24.815Z,49.4
2019-03-30T04:56:50.831Z,15
2019-03-30T04:57:16.742Z,15
2019-03-30T04:57:42.739Z,15
2019-03-30T04:58:08.744Z,15
2019-03-30T04:58:34.739Z,15
2019-03-30T04:59:00.822Z,15
2019-03-30T04:59:26.740Z,15
2019-03-30T04:59:52.741Z,15
2019-03-30T05:00:18.749Z,15
2019-03-30T05:00:44.745Z,15
2019-03-30T05:01:10.834Z,15
2019-03-30T05:01:36.745Z,15
2019-03-30T05:02:02.748Z,15
2019-03-30T05:02:28.745Z,15
2019-03-30T05:02:54.753Z,15
2019-03-30T05:03:20.827Z,15
2019-03-30T05:03:46.745Z,15
2019-03-30T05:04:12.745Z,15
2019-03-30T05:04:38.765Z,15
2019-03-30T05:05:04.751Z,15
2019-03-30T05:05:31.307Z,15
2019-03-30T05:05:56.756Z,15
2019-03-30T05:06:22.754Z,15
2019-03-30T05:06:48.755Z,15
2019-03-30T05:07:14.752Z,15
2019-03-30T05:07:40.834Z,15
2019-03-30T05:08:06.760Z,15
2019-03-30T05:08:32.754Z,15
2019-03-30T05:08:58.755Z,15
2019-03-30T05:09:24.756Z,15
2019-03-30T05:09:50.848Z,15
2019-03-30T05:10:16.755Z,15
2019-03-30T05:10:42.755Z,15
2019-03-30T05:11:08.760Z,15
2019-03-30T05:11:34.761Z,15
2019-03-30T05:12:00.872Z,15
2019-03-30T05:12:26.764Z,15
2019-03-30T05:12:52.757Z,15
2019-03-30T05:13:18.759Z,15
2019-03-30T05:13:44.760Z,15
2019-03-30T05:14:10.850Z,15
2019-03-30T05:14:36.764Z,15
2019-03-30T05:15:02.764Z,15
2019-03-30T05:15:28.767Z,15
2019-03-30T05:15:54.767Z,15
2019-03-30T05:16:20.851Z,15
2019-03-30T05:16:46.767Z,15
2019-03-30T05:17:12.924Z,15
2019-03-30T05:17:38.770Z,15
2019-03-30T05:18:04.780Z,15
2019-03-30T05:18:30.854Z,15
2019-03-30T05:18:56.773Z,15
2019-03-30T05:19:22.773Z,15
2019-03-30T05:19:48.771Z,15
2019-03-30T05:20:14.776Z,15
2019-03-30T05:20:40.861Z,15
2019-03-30T05:21:06.851Z,15
2019-03-30T05:21:32.772Z,15
2019-03-30T05:21:58.779Z,15
2019-03-30T05:22:24.775Z,15
2019-03-30T05:22:50.858Z,15
2019-03-30T05:23:16.788Z,15
2019-03-30T05:23:42.861Z,15
2019-03-30T05:24:08.784Z,15
2019-03-30T05:24:34.874Z,15
2019-03-30T05:25:00.891Z,15
2019-03-30T05:25:26.780Z,15
2019-03-30T05:25:52.790Z,15
2019-03-30T05:26:18.850Z,15
2019-03-30T05:26:44.784Z,13.7
2019-03-30T05:27:10.862Z,13.7
2019-03-30T05:27:36.782Z,13.7
2019-03-30T05:28:02.780Z,13.7
2019-03-30T05:28:28.792Z,13.7
2019-03-30T05:28:54.858Z,13.7
2019-03-30T05:29:20.873Z,13.7
2019-03-30T05:29:46.790Z,13.7
2019-03-30T05:30:12.801Z,13.7
2019-03-30T05:30:38.789Z,13.7
2019-03-30T05:31:04.789Z,13.7
2019-03-30T05:31:30.868Z,13.7
2019-03-30T05:31:56.869Z,13.7
2019-03-30T05:32:22.786Z,13.7
2019-03-30T05:32:48.787Z,13.7
2019-03-30T05:33:14.789Z,13.7
2019-03-30T05:33:40.888Z,13.7
2019-03-30T05:34:06.800Z,13.7
2019-03-30T05:34:33.152Z,13.7
2019-03-30T05:34:58.788Z,13.7
2019-03-30T05:35:24.794Z,13.7
2019-03-30T05:35:50.877Z,13.7
2019-03-30T05:36:16.798Z,13.7
2019-03-30T05:36:42.803Z,13.7
2019-03-30T05:37:08.866Z,13.7
2019-03-30T05:37:34.793Z,13.7
2019-03-30T05:38:00.910Z,13.7
2019-03-30T05:38:26.804Z,13.7
2019-03-30T05:38:52.799Z,13.7
2019-03-30T05:39:18.810Z,13.7
2019-03-30T05:39:44.873Z,13.7
2019-03-30T05:40:10.886Z,13.7
2019-03-30T05:40:36.800Z,13.7
2019-03-30T05:41:02.804Z,13.7
2019-03-30T05:41:28.801Z,13.7
2019-03-30T05:41:54.810Z,13.7
2019-03-30T05:42:20.958Z,13.7
2019-03-30T05:42:46.805Z,13.7
2019-03-30T05:43:12.806Z,13.7
2019-03-30T05:43:38.802Z,13.7
2019-03-30T05:44:04.812Z,13.7
2019-03-30T05:44:30.902Z,13.7
2019-03-30T05:44:56.893Z,13.7
2019-03-30T05:45:22.812Z,13.7
2019-03-30T05:45:48.815Z,13.7
2019-03-30T05:46:14.808Z,13.7
2019-03-30T05:46:41.346Z,13.7
2019-03-30T05:47:06.816Z,13.7
2019-03-30T05:47:32.896Z,13.7
2019-03-30T05:47:58.808Z,13.7
2019-03-30T05:48:24.813Z,13.7
2019-03-30T05:48:50.906Z,13.7
2019-03-30T05:49:16.811Z,13.7
2019-03-30T05:49:42.825Z,13.7
2019-03-30T05:50:08.886Z,13.7
2019-03-30T05:50:34.816Z,13.7
2019-03-30T05:51:00.897Z,13.7
2019-03-30T05:51:26.814Z,13.7
2019-03-30T05:51:52.817Z,13.7
2019-03-30T05:52:18.826Z,13.7
2019-03-30T05:52:44.888Z,13.7
2019-03-30T05:53:10.908Z,13.7
2019-03-30T05:53:36.824Z,13.7
2019-03-30T05:54:02.825Z,13.7
2019-03-30T05:54:28.821Z,13.7
2019-03-30T05:54:54.831Z,13.7
2019-03-30T05:55:20.978Z,13.7
2019-03-30T05:55:46.828Z,13.7
2019-03-30T05:56:12.818Z,13.7
2019-03-30T05:56:38.822Z,14.4
2019-03-30T05:57:04.826Z,14.4
2019-03-30T05:57:31.259Z,14.4
2019-03-30T05:57:56.911Z,14.4
2019-03-30T05:58:22.829Z,14.4